Time;durP1;ratioP1;P1;durP2;ratioP2;P2;SDS_P1;SDS_P2;PMS_P1;PMS_P2;Temp;Humidity;BMP_temperature;BMP_pressure;BME280_temperature;BME280_humidity;BME280_pressure;Samples;Min_cycle;Max_cycle;Signal;HPM_P1;HPM_P2
2023/06/03 00:00:57;;;;;;;10.90;2.00;;;16.50;99.90;;;;;;5051630;28;20197;-60
2023/06/03 00:03:27;;;;;;;2.75;1.75;;;16.40;99.90;;;;;;5052124;28;20240;-59
2023/06/03 00:05:55;;;;;;;4.57;2.42;;;16.40;99.90;;;;;;5051684;28;20212;-60
2023/06/03 00:08:23;;;;;;;6.03;2.00;;;16.30;99.90;;;;;;5051658;28;20221;-60
2023/06/03 00:10:51;;;;;;;6.05;1.75;;;16.30;99.90;;;;;;5050669;28;20233;-60
2023/06/03 00:13:19;;;;;;;8.75;2.20;;;16.30;99.90;;;;;;5050344;28;20316;-59
2023/06/03 00:15:47;;;;;;;7.85;2.10;;;16.20;99.90;;;;;;5051171;28;20201;-60
2023/06/03 00:18:16;;;;;;;5.28;2.22;;;16.20;99.90;;;;;;5051457;28;20224;-60
2023/06/03 00:20:47;;;;;;;2.50;1.73;;;16.10;99.90;;;;;;5051577;28;20263;-59
2023/06/03 00:23:15;;;;;;;9.90;2.30;;;16.10;99.90;;;;;;5049751;28;20233;-59
2023/06/03 00:25:43;;;;;;;5.00;2.20;;;16.10;99.90;;;;;;5042416;28;20233;-59
2023/06/03 00:28:11;;;;;;;4.53;2.13;;;16.00;99.90;;;;;;5051242;28;20212;-57
2023/06/03 00:30:39;;;;;;;9.38;2.22;;;16.00;99.90;;;;;;5051147;28;20213;-57
2023/06/03 00:33:07;;;;;;;7.18;2.30;;;16.00;99.90;;;;;;5051391;28;20286;-58
2023/06/03 00:35:36;;;;;;;4.57;2.10;;;15.90;99.90;;;;;;5051187;28;20209;-58
2023/06/03 00:38:06;;;;;;;8.23;2.10;;;15.90;99.90;;;;;;5051395;28;20739;-57
2023/06/03 00:40:33;;;;;;;4.95;2.08;;;15.90;99.90;;;;;;5051222;28;20722;-57
2023/06/03 00:43:01;;;;;;;7.43;2.58;;;15.90;99.90;;;;;;5051395;28;20229;-58
2023/06/03 00:45:29;;;;;;;7.97;2.28;;;15.90;99.90;;;;;;5050953;28;20217;-57
2023/06/03 00:47:57;;;;;;;8.15;2.55;;;15.80;99.90;;;;;;5051520;28;20239;-58
2023/06/03 00:50:25;;;;;;;6.53;1.77;;;15.80;99.90;;;;;;5050750;28;20244;-59
2023/06/03 00:52:53;;;;;;;6.50;1.98;;;15.70;99.90;;;;;;5049614;28;20791;-57
2023/06/03 00:55:22;;;;;;;5.30;2.30;;;15.70;99.90;;;;;;5050649;28;20209;-57
2023/06/03 00:57:50;;;;;;;10.55;2.17;;;15.70;99.90;;;;;;5050880;28;20288;-57
2023/06/03 01:00:18;;;;;;;9.52;2.65;;;15.70;99.90;;;;;;5051095;28;20248;-58
2023/06/03 01:02:46;;;;;;;6.40;1.90;;;15.60;99.90;;;;;;5051220;28;20229;-60
2023/06/03 01:05:14;;;;;;;6.70;2.28;;;15.60;99.90;;;;;;5050357;28;20209;-59
2023/06/03 01:07:47;;;;;;;13.07;2.10;;;15.60;99.90;;;;;;5051421;28;20354;-59
2023/06/03 01:10:19;;;;;;;6.68;2.35;;;15.60;99.90;;;;;;5054395;28;20664;-60
2023/06/03 01:12:51;;;;;;;6.63;2.25;;;15.60;99.90;;;;;;5055033;28;20233;-60
2023/06/03 01:15:20;;;;;;;7.72;2.35;;;15.50;99.90;;;;;;5054651;28;20263;-60
2023/06/03 01:17:49;;;;;;;7.10;2.42;;;15.50;99.90;;;;;;5055264;28;20221;-60
2023/06/03 01:20:17;;;;;;;5.32;2.20;;;15.50;99.90;;;;;;5054726;28;20236;-60
2023/06/03 01:22:46;;;;;;;7.22;2.53;;;15.40;99.90;;;;;;5054883;28;20225;-59
2023/06/03 01:25:16;;;;;;;5.60;2.55;;;15.40;99.90;;;;;;5054524;28;20216;-60
2023/06/03 01:27:45;;;;;;;6.95;1.85;;;15.40;99.90;;;;;;5051907;28;20233;-59
2023/06/03 01:30:14;;;;;;;6.40;2.35;;;15.40;99.90;;;;;;5054280;28;20220;-59
2023/06/03 01:32:42;;;;;;;5.38;2.15;;;15.30;99.90;;;;;;5054076;28;20306;-59
2023/06/03 01:35:11;;;;;;;7.97;2.38;;;15.30;99.90;;;;;;5054200;28;20251;-59
2023/06/03 01:37:39;;;;;;;8.05;2.25;;;15.30;99.90;;;;;;5054453;28;20245;-60
2023/06/03 01:40:07;;;;;;;3.72;2.50;;;15.30;99.90;;;;;;5054534;28;20202;-59
2023/06/03 01:42:37;;;;;;;8.52;2.47;;;15.20;99.90;;;;;;5054240;28;20770;-59
2023/06/03 01:45:06;;;;;;;6.82;2.60;;;15.10;99.90;;;;;;5053861;28;20703;-59
2023/06/03 01:47:34;;;;;;;7.93;2.42;;;15.10;99.90;;;;;;5054242;28;20209;-60
2023/06/03 01:50:02;;;;;;;4.05;2.55;;;15.10;99.90;;;;;;5054252;28;20318;-60
2023/06/03 01:52:30;;;;;;;7.38;2.42;;;15.00;99.90;;;;;;5054247;28;20233;-60
2023/06/03 01:54:58;;;;;;;8.98;3.08;;;15.00;99.90;;;;;;5053876;28;20213;-59
2023/06/03 01:57:26;;;;;;;8.60;2.42;;;15.00;99.90;;;;;;5054512;28;20723;-59
2023/06/03 01:59:56;;;;;;;6.80;2.47;;;15.00;99.90;;;;;;5053804;28;20204;-59
2023/06/03 02:02:24;;;;;;;8.07;2.63;;;15.00;99.90;;;;;;5054059;28;20256;-60
2023/06/03 02:04:56;;;;;;;5.85;2.33;;;15.00;99.90;;;;;;5053528;28;20684;-59
2023/06/03 02:07:25;;;;;;;4.05;2.70;;;14.90;99.90;;;;;;5053992;28;20213;-59
2023/06/03 02:09:53;;;;;;;9.25;2.80;;;14.90;99.90;;;;;;5053927;28;20308;-59
2023/06/03 02:12:21;;;;;;;6.35;2.55;;;14.90;99.90;;;;;;5053710;28;20271;-59
2023/06/03 02:14:53;;;;;;;7.00;2.85;;;14.90;99.90;;;;;;5053661;28;20324;-59
2023/06/03 02:17:24;;;;;;;4.35;2.60;;;14.90;99.90;;;;;;5053983;28;20282;-60
2023/06/03 02:19:52;;;;;;;5.18;2.88;;;14.80;99.90;;;;;;5053324;28;20198;-60
2023/06/03 02:22:20;;;;;;;3.38;2.17;;;14.80;99.90;;;;;;5053673;28;20794;-59
2023/06/03 02:24:48;;;;;;;6.95;2.70;;;14.80;99.90;;;;;;5052939;28;20214;-59
2023/06/03 02:27:19;;;;;;;10.07;2.47;;;14.80;99.90;;;;;;5053806;28;20206;-60
2023/06/03 02:29:50;;;;;;;9.95;3.17;;;14.70;99.90;;;;;;5053649;28;20225;-59
2023/06/03 02:32:18;;;;;;;6.35;2.85;;;14.70;99.90;;;;;;5053410;28;20234;-59
2023/06/03 02:34:50;;;;;;;9.25;2.83;;;14.70;99.90;;;;;;5053017;28;20205;-59
2023/06/03 02:37:18;;;;;;;4.15;2.97;;;14.60;99.90;;;;;;5053479;28;20585;-59
2023/06/03 02:39:46;;;;;;;5.38;2.65;;;14.60;99.90;;;;;;5053423;28;20202;-60
2023/06/03 02:42:14;;;;;;;7.20;3.08;;;14.60;99.90;;;;;;5053680;28;20226;-59
2023/06/03 02:44:42;;;;;;;10.55;3.35;;;14.60;99.90;;;;;;5053018;28;20217;-60
2023/06/03 02:47:09;;;;;;;6.10;2.75;;;14.60;99.90;;;;;;5053427;28;20591;-59
2023/06/03 02:49:37;;;;;;;9.27;2.88;;;14.50;99.90;;;;;;5052776;28;20576;-59
2023/06/03 02:52:07;;;;;;;7.50;3.10;;;14.50;99.90;;;;;;5053216;28;20222;-59
2023/06/03 02:54:35;;;;;;;8.68;3.20;;;14.50;99.90;;;;;;5053060;28;20237;-60
2023/06/03 02:57:03;;;;;;;6.78;2.92;;;14.50;99.90;;;;;;5053484;28;20241;-59
2023/06/03 02:59:31;;;;;;;8.88;2.88;;;14.50;99.90;;;;;;5052888;28;20609;-59
2023/06/03 03:01:59;;;;;;;6.65;2.63;;;14.50;99.90;;;;;;5052821;28;20268;-60
2023/06/03 03:04:32;;;;;;;7.97;2.92;;;14.50;99.90;;;;;;5049329;28;20201;-59
2023/06/03 03:07:01;;;;;;;7.00;3.10;;;14.40;99.90;;;;;;5052968;28;20229;-59
2023/06/03 03:09:31;;;;;;;7.07;3.15;;;14.40;99.90;;;;;;5052881;28;20206;-59
2023/06/03 03:11:58;;;;;;;9.23;3.05;;;14.40;99.90;;;;;;5052630;28;20316;-59
2023/06/03 03:14:26;;;;;;;4.53;3.17;;;14.40;99.90;;;;;;5052778;28;20210;-59
2023/06/03 03:16:54;;;;;;;7.80;3.47;;;14.30;99.90;;;;;;5052604;28;20224;-59
2023/06/03 03:19:22;;;;;;;8.05;2.90;;;14.30;99.90;;;;;;5052910;28;20237;-59
2023/06/03 03:21:50;;;;;;;6.63;2.83;;;14.30;99.90;;;;;;5052719;28;20724;-59
2023/06/03 03:24:19;;;;;;;4.85;2.92;;;14.30;99.90;;;;;;5053028;28;20217;-59
2023/06/03 03:26:48;;;;;;;8.18;3.00;;;14.30;99.90;;;;;;5052665;28;20245;-59
2023/06/03 03:29:16;;;;;;;4.03;2.50;;;14.30;99.90;;;;;;5052321;28;20244;-59
2023/06/03 03:31:44;;;;;;;4.90;2.80;;;14.30;99.90;;;;;;5051603;28;20253;-59
2023/06/03 03:34:14;;;;;;;9.52;3.15;;;14.30;99.90;;;;;;5052392;28;20288;-59
2023/06/03 03:36:45;;;;;;;7.70;2.80;;;14.20;99.90;;;;;;5052219;28;20296;-60
2023/06/03 03:39:13;;;;;;;8.43;2.78;;;14.20;99.90;;;;;;5052657;28;20213;-60
2023/06/03 03:41:43;;;;;;;7.88;2.92;;;14.20;99.90;;;;;;5051931;28;20634;-60
2023/06/03 03:44:12;;;;;;;7.68;3.63;;;14.10;99.90;;;;;;5052096;28;20554;-59
2023/06/03 03:46:41;;;;;;;6.75;2.92;;;14.10;99.90;;;;;;5051823;28;20700;-60
2023/06/03 03:49:10;;;;;;;7.30;2.88;;;14.10;99.90;;;;;;5050111;28;20228;-59
2023/06/03 03:51:38;;;;;;;9.05;3.05;;;14.10;99.90;;;;;;5051738;28;20256;-59
2023/06/03 03:54:06;;;;;;;10.20;3.15;;;14.10;99.90;;;;;;5050284;28;20229;-60
2023/06/03 03:56:34;;;;;;;7.18;3.03;;;14.10;99.90;;;;;;5051368;28;20201;-59
2023/06/03 03:59:03;;;;;;;4.72;2.53;;;14.10;99.90;;;;;;5052104;28;20209;-60
2023/06/03 04:01:32;;;;;;;6.13;2.35;;;14.10;99.90;;;;;;5051977;28;20244;-60
2023/06/03 04:04:00;;;;;;;4.32;2.45;;;14.10;99.90;;;;;;5052004;28;20210;-59
2023/06/03 04:06:30;;;;;;;8.68;3.08;;;14.10;99.90;;;;;;5051784;28;20236;-59
2023/06/03 04:08:58;;;;;;;9.77;3.03;;;14.00;99.90;;;;;;5051856;28;20647;-59
2023/06/03 04:11:27;;;;;;;5.55;2.30;;;14.10;99.90;;;;;;5051774;28;20233;-60
2023/06/03 04:13:55;;;;;;;3.33;2.50;;;14.10;99.90;;;;;;5051909;28;20249;-60
2023/06/03 04:16:57;;;;;;;5.63;2.90;;;14.10;99.90;;;;;;5051516;28;20233;-59
2023/06/03 04:19:30;;;;;;;8.10;2.47;;;14.10;99.90;;;;;;5032234;28;20209;-60
2023/06/03 04:21:59;;;;;;;5.07;2.45;;;14.10;99.90;;;;;;5051588;28;20221;-60
2023/06/03 04:24:27;;;;;;;7.68;2.80;;;14.10;99.90;;;;;;5051620;28;20206;-60
2023/06/03 04:26:55;;;;;;;3.53;2.20;;;14.10;99.90;;;;;;5051723;28;20233;-59
2023/06/03 04:29:23;;;;;;;8.00;2.72;;;14.20;99.90;;;;;;5051609;28;20287;-59
2023/06/03 04:31:51;;;;;;;4.30;2.20;;;14.20;99.90;;;;;;5051284;28;20593;-60
2023/06/03 04:34:19;;;;;;;4.32;2.67;;;14.20;99.90;;;;;;5051417;28;20681;-60
2023/06/03 04:36:48;;;;;;;10.82;2.30;;;14.20;99.90;;;;;;5051423;28;20209;-60
2023/06/03 04:39:17;;;;;;;2.25;1.98;;;14.30;99.90;;;;;;5051509;28;20205;-60
2023/06/03 04:41:45;;;;;;;5.53;2.20;;;14.30;99.90;;;;;;5050416;28;20735;-60
2023/06/03 04:44:13;;;;;;;4.05;1.88;;;14.30;99.90;;;;;;5053923;28;20807;-59
2023/06/03 04:46:45;;;;;;;7.00;2.42;;;14.30;99.90;;;;;;5055559;28;20206;-60
2023/06/03 04:49:14;;;;;;;9.70;2.53;;;14.30;99.90;;;;;;5055525;28;20591;-60
2023/06/03 04:51:42;;;;;;;6.13;2.35;;;14.30;99.90;;;;;;5055450;28;20229;-59
2023/06/03 04:54:11;;;;;;;4.00;2.22;;;14.30;99.90;;;;;;5055419;28;20234;-60
2023/06/03 04:56:39;;;;;;;10.23;2.00;;;14.40;99.90;;;;;;5055588;28;20292;-59
2023/06/03 04:59:07;;;;;;;8.93;2.53;;;14.40;99.90;;;;;;5055379;28;20289;-59
2023/06/03 05:01:36;;;;;;;4.80;1.98;;;14.40;99.90;;;;;;5055242;28;20636;-59
2023/06/03 05:04:08;;;;;;;6.95;2.20;;;14.50;99.90;;;;;;5055213;28;20249;-59
2023/06/03 05:06:38;;;;;;;5.53;1.88;;;14.50;99.90;;;;;;5055140;28;20205;-59
2023/06/03 05:09:09;;;;;;;5.20;1.80;;;14.50;99.90;;;;;;5055033;28;20209;-59
2023/06/03 05:11:38;;;;;;;3.42;1.98;;;14.50;99.90;;;;;;5055158;28;20320;-59
2023/06/03 05:14:07;;;;;;;6.72;2.50;;;14.50;99.90;;;;;;5055295;28;20205;-59
2023/06/03 05:16:35;;;;;;;3.65;1.90;;;14.50;99.90;;;;;;5054885;28;20616;-60
2023/06/03 05:19:03;;;;;;;5.20;2.08;;;14.50;99.90;;;;;;5055084;28;20627;-59
2023/06/03 05:21:30;;;;;;;3.00;1.88;;;14.60;99.90;;;;;;5054937;28;20233;-59
2023/06/03 05:23:58;;;;;;;3.17;1.65;;;14.60;99.90;;;;;;5054759;28;20201;-59
2023/06/03 05:26:26;;;;;;;5.53;1.77;;;14.60;99.90;;;;;;5054725;28;20248;-57
2023/06/03 05:28:55;;;;;;;2.00;1.70;;;14.60;99.90;;;;;;5054348;28;20247;-57
2023/06/03 05:33:55;;;;;;;1.90;1.33;;;14.70;99.90;;;;;;5061323;28;20279;-60
2023/06/03 05:36:23;;;;;;;4.10;1.85;;;14.80;99.90;;;;;;5053708;28;20279;-60
2023/06/03 05:38:50;;;;;;;7.53;1.80;;;14.80;99.90;;;;;;5053674;28;20232;-60
2023/06/03 05:41:18;;;;;;;4.95;1.95;;;14.80;99.90;;;;;;5054086;28;20304;-60
2023/06/03 05:43:46;;;;;;;7.15;2.13;;;14.80;99.90;;;;;;5053794;28;20780;-60
2023/06/03 05:46:15;;;;;;;4.85;1.50;;;14.80;99.90;;;;;;5052552;28;20296;-60
2023/06/03 05:48:44;;;;;;;4.38;2.03;;;14.90;99.90;;;;;;5054016;28;20209;-60
2023/06/03 05:51:12;;;;;;;4.40;1.92;;;15.00;99.90;;;;;;5054055;28;20208;-60
2023/06/03 05:53:43;;;;;;;3.33;1.73;;;15.00;99.90;;;;;;5054072;28;20659;-60
2023/06/03 05:56:11;;;;;;;3.63;1.67;;;15.10;99.90;;;;;;5052628;28;20209;-60
2023/06/03 05:58:40;;;;;;;4.05;1.77;;;15.10;99.90;;;;;;5053900;28;20214;-60
2023/06/03 06:01:08;;;;;;;5.05;1.55;;;15.20;99.90;;;;;;5053713;28;20205;-58
2023/06/03 06:03:37;;;;;;;8.20;1.40;;;15.20;99.90;;;;;;5053556;28;20639;-58
2023/06/03 06:06:05;;;;;;;5.88;1.70;;;15.30;99.90;;;;;;5053447;28;20201;-58
2023/06/03 06:08:33;;;;;;;3.10;1.80;;;15.40;99.90;;;;;;5076953;28;20283;-59
2023/06/03 06:11:01;;;;;;;4.50;1.40;;;15.50;99.90;;;;;;5076482;28;20648;-58
2023/06/03 06:13:29;;;;;;;1.88;1.23;;;15.50;99.90;;;;;;5069697;28;20308;-59
2023/06/03 06:15:58;;;;;;;1.60;1.42;;;15.50;99.90;;;;;;5073288;28;20240;-58
2023/06/03 06:18:26;;;;;;;8.02;1.38;;;15.50;99.90;;;;;;5073387;28;20740;-59
2023/06/03 06:20:55;;;;;;;2.88;1.70;;;15.60;99.90;;;;;;5073568;28;20236;-58
2023/06/03 06:23:23;;;;;;;9.38;1.38;;;15.80;99.90;;;;;;5073377;28;20225;-58
2023/06/03 06:25:52;;;;;;;6.32;1.88;;;15.80;99.90;;;;;;5073002;28;20255;-58
2023/06/03 06:28:21;;;;;;;1.45;1.35;;;15.90;99.90;;;;;;5073503;28;20616;-57
2023/06/03 06:30:52;;;;;;;5.30;1.52;;;16.00;99.90;;;;;;5073204;28;20205;-59
2023/06/03 06:33:19;;;;;;;2.58;1.27;;;16.10;99.90;;;;;;5073245;28;20233;-58
2023/06/03 06:35:47;;;;;;;3.28;1.83;;;16.20;99.90;;;;;;5072796;28;20611;-58
2023/06/03 06:38:16;;;;;;;2.78;1.40;;;16.30;99.90;;;;;;5073043;28;20263;-57
2023/06/03 06:40:45;;;;;;;3.90;1.40;;;16.20;99.90;;;;;;5072929;28;20239;-58
2023/06/03 06:43:14;;;;;;;2.53;1.60;;;16.20;99.90;;;;;;5073155;28;20281;-57
2023/06/03 06:45:42;;;;;;;2.75;1.52;;;16.30;99.90;;;;;;5072810;28;20213;-57
2023/06/03 06:48:11;;;;;;;3.08;1.25;;;16.30;99.90;;;;;;5071270;28;20305;-58
2023/06/03 06:50:47;;;;;;;4.57;1.40;;;16.30;99.90;;;;;;5074666;28;20683;-58
2023/06/03 06:53:18;;;;;;;7.03;1.30;;;16.40;99.90;;;;;;5060930;28;20267;-58
2023/06/03 06:55:50;;;;;;;2.15;1.42;;;16.40;99.90;;;;;;5070942;28;20209;-58
2023/06/03 06:58:18;;;;;;;2.53;1.45;;;16.40;99.90;;;;;;5072980;28;20209;-58
2023/06/03 07:00:46;;;;;;;3.50;1.42;;;16.50;99.90;;;;;;5072762;28;20252;-58
2023/06/03 07:03:15;;;;;;;3.63;1.42;;;16.50;99.90;;;;;;5072647;28;20225;-58
2023/06/03 07:05:43;;;;;;;6.15;1.48;;;16.70;99.90;;;;;;5072023;28;20287;-57
2023/06/03 07:08:10;;;;;;;8.63;2.13;;;16.70;99.90;;;;;;5072498;28;20660;-58
2023/06/03 07:10:39;;;;;;;1.75;1.20;;;16.80;99.90;;;;;;5072681;28;20254;-58
2023/06/03 07:13:08;;;;;;;3.00;1.45;;;16.80;99.90;;;;;;5072476;28;20232;-58
2023/06/03 07:15:39;;;;;;;3.25;1.45;;;16.90;99.90;;;;;;5071951;28;20704;-58
2023/06/03 07:18:07;;;;;;;2.75;1.75;;;17.10;99.90;;;;;;5072191;28;20240;-58
2023/06/03 07:20:35;;;;;;;3.60;1.48;;;17.20;99.90;;;;;;5072048;28;20216;-57
2023/06/03 07:23:08;;;;;;;2.17;1.65;;;17.30;99.90;;;;;;5072140;28;20227;-58
2023/06/03 07:25:36;;;;;;;3.65;1.70;;;17.30;99.90;;;;;;5071850;28;20667;-61
2023/06/03 07:28:08;;;;;;;2.78;1.70;;;17.30;99.90;;;;;;5072347;28;20239;-61
2023/06/03 07:30:36;;;;;;;11.20;1.70;;;17.30;99.90;;;;;;5071958;28;20254;-62
2023/06/03 07:33:05;;;;;;;3.30;1.60;;;17.40;99.90;;;;;;5070907;28;20229;-61
2023/06/03 07:35:34;;;;;;;3.72;1.70;;;17.40;99.90;;;;;;5071552;28;20676;-61
2023/06/03 07:38:02;;;;;;;4.53;2.10;;;17.50;99.90;;;;;;5072334;28;20212;-61
2023/06/03 07:40:39;;;;;;;5.28;1.63;;;17.70;99.90;;;;;;5072114;28;20204;-61
2023/06/03 07:43:08;;;;;;;9.60;1.90;;;17.80;99.90;;;;;;5072162;28;20224;-61
2023/06/03 07:45:36;;;;;;;3.30;1.58;;;17.80;99.90;;;;;;5071213;28;20205;-61
2023/06/03 07:48:05;;;;;;;1.83;1.73;;;17.80;99.90;;;;;;5071825;28;20671;-61
2023/06/03 07:50:33;;;;;;;3.22;1.77;;;17.70;99.90;;;;;;5070798;28;20256;-62
2023/06/03 07:53:01;;;;;;;5.60;2.25;;;17.80;99.90;;;;;;5070415;28;20272;-61
2023/06/03 07:55:34;;;;;;;6.80;1.70;;;17.80;99.90;;;;;;5071529;28;20295;-61
2023/06/03 07:58:02;;;;;;;3.45;1.60;;;17.90;99.90;;;;;;5071648;28;20718;-61
2023/06/03 08:00:31;;;;;;;6.47;1.90;;;17.90;99.90;;;;;;5071616;28;20644;-61
2023/06/03 08:03:00;;;;;;;9.00;2.00;;;17.80;99.90;;;;;;5071803;28;20221;-62
2023/06/03 08:05:32;;;;;;;4.47;1.52;;;17.80;99.90;;;;;;5069729;28;20243;-62
2023/06/03 08:08:00;;;;;;;3.33;1.83;;;17.80;99.90;;;;;;5070248;28;20274;-61
2023/06/03 08:10:28;;;;;;;3.70;1.65;;;17.90;99.90;;;;;;5070826;28;20248;-61
2023/06/03 08:12:56;;;;;;;4.78;2.08;;;18.00;99.90;;;;;;5062981;28;20769;-62
2023/06/03 08:15:27;;;;;;;2.50;1.65;;;18.30;99.90;;;;;;5071318;28;20258;-61
2023/06/03 08:17:57;;;;;;;4.63;1.85;;;18.40;99.90;;;;;;5071471;28;20201;-62
2023/06/03 08:20:25;;;;;;;4.65;2.17;;;18.40;99.90;;;;;;5071518;28;20583;-61
2023/06/03 08:22:53;;;;;;;3.47;1.75;;;18.50;99.90;;;;;;5071566;28;20221;-62
2023/06/03 08:25:21;;;;;;;6.88;2.28;;;18.60;99.90;;;;;;5071679;28;20212;-62
2023/06/03 08:27:49;;;;;;;5.88;2.05;;;18.80;99.90;;;;;;5071900;28;20232;-62
2023/06/03 08:30:17;;;;;;;4.85;1.95;;;19.00;99.90;;;;;;5071568;28;20358;-62
2023/06/03 08:32:45;;;;;;;3.97;2.10;;;19.10;99.90;;;;;;5071313;28;20865;-61
2023/06/03 08:35:15;;;;;;;4.85;2.20;;;19.10;99.90;;;;;;5068431;28;20201;-62
2023/06/03 08:37:43;;;;;;;5.22;1.98;;;19.20;99.90;;;;;;5066225;28;20204;-57
2023/06/03 08:40:12;;;;;;;5.18;1.88;;;19.30;99.90;;;;;;5078649;28;20262;-58
2023/06/03 08:42:41;;;;;;;4.82;1.90;;;19.50;99.90;;;;;;5068241;28;20231;-59
2023/06/03 08:45:10;;;;;;;3.58;1.80;;;19.70;99.90;;;;;;5066655;28;20633;-58
2023/06/03 08:47:47;;;;;;;6.75;2.03;;;19.70;99.90;;;;;;5068819;28;20680;-58
2023/06/03 08:50:18;;;;;;;1.95;1.77;;;19.70;99.90;;;;;;5071570;28;20258;-59
2023/06/03 08:52:46;;;;;;;2.70;1.70;;;19.80;99.90;;;;;;5071534;28;20271;-58
2023/06/03 08:55:16;;;;;;;3.10;2.10;;;19.80;99.90;;;;;;5071171;28;20558;-59
2023/06/03 08:57:46;;;;;;;3.85;1.73;;;19.90;99.90;;;;;;5071359;28;20286;-58
2023/06/03 09:00:14;;;;;;;7.13;2.17;;;20.10;99.90;;;;;;5071019;28;20355;-59
2023/06/03 09:02:42;;;;;;;7.00;2.20;;;20.10;99.90;;;;;;5071086;28;20737;-58
2023/06/03 09:05:10;;;;;;;5.40;2.35;;;20.10;99.90;;;;;;5069553;28;20656;-58
2023/06/03 09:07:39;;;;;;;3.83;1.90;;;20.20;99.90;;;;;;5070927;28;20295;-59
2023/06/03 09:10:08;;;;;;;3.30;2.13;;;20.20;99.90;;;;;;5071265;28;20236;-58
2023/06/03 09:12:36;;;;;;;2.53;1.95;;;20.10;99.90;;;;;;5071098;28;20224;-59
2023/06/03 09:15:05;;;;;;;7.28;2.25;;;20.10;99.90;;;;;;5070494;28;20311;-59
2023/06/03 09:17:32;;;;;;;6.22;2.47;;;20.10;99.90;;;;;;5071174;28;20204;-58
2023/06/03 09:20:02;;;;;;;3.33;2.53;;;20.30;99.90;;;;;;5071125;28;20211;-58
2023/06/03 09:22:30;;;;;;;3.95;2.30;;;20.50;99.90;;;;;;5071144;28;20252;-59
2023/06/03 09:24:59;;;;;;;8.43;2.60;;;20.70;99.90;;;;;;5070674;28;20258;-59
2023/06/03 09:27:27;;;;;;;2.92;2.55;;;20.90;99.90;;;;;;5070880;28;20255;-59
2023/06/03 09:29:55;;;;;;;2.90;2.33;;;21.10;99.90;;;;;;5071538;28;20244;-58
2023/06/03 09:32:23;;;;;;;5.35;2.40;;;21.50;99.90;;;;;;5074425;28;20287;-59
2023/06/03 09:34:50;;;;;;;8.27;2.83;;;21.90;99.90;;;;;;5073989;28;20235;-59
2023/06/03 09:37:18;;;;;;;3.55;2.92;;;22.30;99.90;;;;;;5074574;28;20639;-59
2023/06/03 09:39:48;;;;;;;4.45;2.45;;;22.60;99.90;;;;;;5074388;28;20714;-59
2023/06/03 09:42:17;;;;;;;4.68;2.42;;;22.90;99.90;;;;;;5074213;28;20267;-58
2023/06/03 09:44:48;;;;;;;4.60;2.80;;;23.10;99.90;;;;;;5074138;28;20204;-59
2023/06/03 09:47:16;;;;;;;7.00;2.58;;;23.00;99.90;;;;;;5074496;28;20209;-59
2023/06/03 09:50:03;;;;;;;5.57;2.70;;;23.10;99.90;;;;;;5074170;28;20204;-59
2023/06/03 09:52:31;;;;;;;5.10;2.47;;;23.30;99.90;;;;;;5074039;28;20358;-59
2023/06/03 09:55:03;;;;;;;3.03;2.70;;;23.40;99.90;;;;;;5073969;28;20311;-59
2023/06/03 09:57:32;;;;;;;5.63;3.20;;;23.60;99.90;;;;;;5074245;28;20244;-59
2023/06/03 10:00:07;;;;;;;4.75;2.58;;;23.80;99.90;;;;;;5074102;28;20211;-59
2023/06/03 10:02:35;;;;;;;10.43;2.80;;;24.00;99.90;;;;;;5073942;28;20321;-59
2023/06/03 10:05:04;;;;;;;3.45;2.60;;;24.20;99.90;;;;;;5073505;28;20201;-59
2023/06/03 10:07:32;;;;;;;4.63;2.90;;;24.40;99.90;;;;;;5074129;28;20300;-59
2023/06/03 10:10:08;;;;;;;3.47;2.88;;;24.60;99.90;;;;;;5073831;28;20263;-59
2023/06/03 10:12:37;;;;;;;4.88;2.58;;;24.50;99.20;;;;;;5073809;28;20620;-59
2023/06/03 10:15:06;;;;;;;2.55;2.33;;;24.20;99.90;;;;;;5073423;28;20323;-59
2023/06/03 10:17:33;;;;;;;4.40;3.10;;;24.00;99.90;;;;;;5073648;28;20287;-59
2023/06/03 10:20:05;;;;;;;5.60;2.85;;;23.80;99.80;;;;;;5073925;28;20212;-59
2023/06/03 10:22:33;;;;;;;3.83;2.55;;;23.90;99.90;;;;;;5073476;28;20747;-59
2023/06/03 10:25:01;;;;;;;4.97;2.97;;;24.00;99.50;;;;;;5073179;28;20694;-59
2023/06/03 10:27:28;;;;;;;3.20;2.70;;;23.80;99.90;;;;;;5073514;28;20205;-59
2023/06/03 10:29:58;;;;;;;4.63;2.72;;;23.80;99.90;;;;;;5073343;28;20731;-59
2023/06/03 10:32:26;;;;;;;5.25;2.50;;;24.30;99.90;;;;;;5073350;28;20323;-59
2023/06/03 10:34:53;;;;;;;4.28;2.70;;;24.90;99.90;;;;;;5073236;28;20258;-59
2023/06/03 10:37:22;;;;;;;5.85;3.08;;;25.60;98.90;;;;;;5073484;28;20258;-59
2023/06/03 10:39:50;;;;;;;3.33;2.55;;;26.10;99.60;;;;;;5073591;28;20208;-59
2023/06/03 10:42:18;;;;;;;6.72;2.90;;;26.30;98.90;;;;;;5072841;28;20315;-60
2023/06/03 10:44:46;;;;;;;3.35;2.85;;;26.50;98.10;;;;;;5072986;28;20257;-59
2023/06/03 10:47:25;;;;;;;5.93;2.80;;;26.60;97.60;;;;;;5073428;28;20251;-59
2023/06/03 10:49:56;;;;;;;4.13;2.70;;;26.40;96.30;;;;;;5073189;28;20242;-60
2023/06/03 10:52:49;;;;;;;4.63;3.28;;;26.60;97.90;;;;;;5072964;28;20235;-59
2023/06/03 10:55:25;;;;;;;4.57;2.90;;;26.40;95.30;;;;;;5072787;28;20778;-59
2023/06/03 10:57:57;;;;;;;2.90;2.70;;;26.50;96.10;;;;;;5073214;28;20374;-59
2023/06/03 11:00:54;;;;;;;5.80;2.67;;;26.90;96.10;;;;;;5073053;28;20236;-59
2023/06/03 11:03:23;;;;;;;8.32;2.85;;;26.90;94.50;;;;;;5072653;28;20267;-59
2023/06/03 11:05:51;;;;;;;4.75;3.10;;;27.10;94.10;;;;;;5072467;28;20820;-59
2023/06/03 11:08:57;;;;;;;5.40;3.40;;;27.40;92.90;;;;;;5072991;28;20243;-59
2023/06/03 11:12:05;;;;;;;3.10;2.88;;;27.40;92.90;;;;;;5072669;28;20710;-59
2023/06/03 11:14:51;;;;;;;3.13;2.83;;;27.60;92.60;;;;;;5072446;28;20926;-59
2023/06/03 11:17:19;;;;;;;6.80;3.38;;;27.50;93.00;;;;;;5072609;28;20239;-59
2023/06/03 11:19:50;;;;;;;7.88;2.90;;;27.60;93.60;;;;;;5072474;28;20246;-59
2023/06/03 11:22:45;;;;;;;5.45;3.50;;;27.90;93.20;;;;;;5072324;28;20711;-59
2023/06/03 11:25:29;;;;;;;2.85;2.70;;;28.00;90.60;;;;;;5054308;28;20649;-59
2023/06/03 11:28:36;;;;;;;3.53;3.08;;;28.20;89.20;;;;;;5072510;28;20214;-59
2023/06/03 11:31:05;;;;;;;3.50;3.20;;;28.40;90.40;;;;;;5072376;28;20216;-59
2023/06/03 11:33:34;;;;;;;8.75;3.40;;;28.20;88.60;;;;;;5072777;28;21003;-61
2023/06/03 11:36:40;;;;;;;6.43;3.30;;;28.00;88.40;;;;;;5072103;28;20314;-61
2023/06/03 11:39:10;;;;;;;8.57;3.08;;;28.00;88.90;;;;;;5041395;28;20575;-60
2023/06/03 11:42:00;;;;;;;5.45;3.15;;;28.10;88.40;;;;;;5072445;28;20205;-61
2023/06/03 11:44:28;;;;;;;4.45;2.80;;;28.40;86.60;;;;;;5072460;28;20262;-61
2023/06/03 11:46:59;;;;;;;3.30;3.00;;;28.50;90.00;;;;;;5072273;28;20208;-60
2023/06/03 11:49:27;;;;;;;6.53;3.10;;;28.90;90.90;;;;;;5072432;28;20320;-59
2023/06/03 11:51:57;;;;;;;6.63;3.15;;;29.00;88.20;;;;;;5072080;28;20600;-61
2023/06/03 11:54:27;;;;;;;5.75;2.90;;;29.00;85.10;;;;;;5071834;28;20254;-61
2023/06/03 11:56:56;;;;;;;4.25;2.70;;;29.20;86.60;;;;;;5072207;28;20251;-62
2023/06/03 11:59:28;;;;;;;6.07;3.00;;;29.30;86.40;;;;;;5072317;28;20215;-62
2023/06/03 12:01:57;;;;;;;9.23;3.40;;;29.70;84.30;;;;;;5072056;28;20264;-61
2023/06/03 12:04:25;;;;;;;4.35;2.40;;;29.20;80.30;;;;;;5072315;28;20233;-61
2023/06/03 12:06:53;;;;;;;4.40;3.22;;;28.30;82.10;;;;;;5072146;28;20232;-61
2023/06/03 12:09:21;;;;;;;4.28;2.95;;;27.40;82.60;;;;;;5072062;28;20286;-62
2023/06/03 12:11:50;;;;;;;5.05;3.45;;;27.40;86.30;;;;;;5071717;28;20231;-61
2023/06/03 12:14:27;;;;;;;6.38;3.00;;;28.10;86.40;;;;;;5071699;28;20211;-60
2023/06/03 12:16:55;;;;;;;3.03;2.72;;;28.80;85.80;;;;;;5071832;28;20228;-61
2023/06/03 12:19:23;;;;;;;6.68;3.20;;;29.50;85.20;;;;;;5072061;28;20858;-61
2023/06/03 12:21:56;;;;;;;6.65;3.30;;;30.10;82.80;;;;;;5071644;28;20586;-61
2023/06/03 12:24:27;;;;;;;3.42;3.22;;;30.60;82.40;;;;;;5071921;28;20292;-61
2023/06/03 12:26:56;;;;;;;7.25;3.00;;;30.70;80.70;;;;;;5071805;28;20192;-61
2023/06/03 12:29:24;;;;;;;5.47;3.10;;;30.90;81.70;;;;;;5071678;28;20735;-61
2023/06/03 12:31:59;;;;;;;6.65;3.15;;;31.00;81.10;;;;;;5071703;28;20290;-61
2023/06/03 12:34:34;;;;;;;4.68;3.17;;;30.60;76.90;;;;;;5071766;28;20215;-60
2023/06/03 12:37:02;;;;;;;8.13;3.03;;;29.70;75.30;;;;;;5071395;28;20610;-60
2023/06/03 12:39:41;;;;;;;3.75;3.28;;;29.20;78.00;;;;;;5071696;28;20668;-60
2023/06/03 12:42:10;;;;;;;4.63;2.92;;;29.20;78.40;;;;;;5071657;28;20307;-61
2023/06/03 12:44:43;;;;;;;6.13;3.25;;;29.00;78.30;;;;;;5071451;28;20244;-59
2023/06/03 12:47:11;;;;;;;4.90;3.10;;;28.50;78.40;;;;;;5072415;28;20747;-62
2023/06/03 12:49:39;;;;;;;6.20;2.70;;;28.80;80.10;;;;;;5071981;28;20668;-62
2023/06/03 12:52:15;;;;;;;7.50;3.28;;;29.20;82.50;;;;;;5069270;28;20311;-61
2023/06/03 12:54:47;;;;;;;3.97;3.63;;;29.70;79.30;;;;;;5069477;28;20307;-60
2023/06/03 12:57:16;;;;;;;3.47;3.17;;;29.90;78.40;;;;;;5069389;28;20735;-60
2023/06/03 13:00:00;;;;;;;4.88;3.17;;;30.20;77.70;;;;;;5069199;28;20233;-62
2023/06/03 13:02:28;;;;;;;5.15;3.17;;;30.60;77.30;;;;;;5068402;28;20228;-62